createdAt,value
2019-01-21T00:01:00.540Z,6.26
2019-01-21T00:03:30.288Z,6.23
2019-01-21T00:05:59.859Z,6.18
2019-01-21T00:08:29.357Z,6.20
2019-01-21T00:10:58.954Z,6.16
2019-01-21T00:13:28.451Z,6.12
2019-01-21T00:15:57.960Z,6.03
2019-01-21T00:18:27.500Z,6.07
2019-01-21T00:20:57.020Z,6.04
2019-01-21T00:23:26.533Z,6.16
2019-01-21T00:25:56.209Z,6.18
2019-01-21T00:28:25.721Z,6.09
2019-01-21T00:30:55.232Z,6.15
2019-01-21T00:33:24.775Z,6.22
2019-01-21T00:35:54.365Z,6.22
2019-01-21T00:38:23.874Z,6.20
2019-01-21T00:40:54.939Z,6.17
2019-01-21T00:43:24.451Z,6.25
2019-01-21T00:45:53.999Z,6.32
2019-01-21T00:48:23.529Z,6.31
2019-01-21T00:50:53.079Z,6.29
2019-01-21T00:53:22.640Z,6.35
2019-01-21T00:55:52.178Z,6.33
2019-01-21T00:58:21.723Z,6.32
2019-01-21T01:00:51.313Z,6.28
2019-01-21T01:03:20.857Z,6.24
2019-01-21T01:05:50.413Z,6.28
2019-01-21T01:08:20.025Z,6.26
2019-01-21T01:10:49.722Z,6.27
2019-01-21T01:13:19.247Z,6.35
2019-01-21T01:15:48.802Z,6.32
2019-01-21T01:18:18.343Z,6.34
2019-01-21T01:20:47.890Z,6.21
2019-01-21T01:23:17.472Z,6.19
2019-01-21T01:25:47.033Z,6.13
2019-01-21T01:28:16.713Z,5.98
2019-01-21T01:30:46.332Z,5.93
2019-01-21T01:33:15.862Z,5.99
2019-01-21T01:35:45.382Z,5.98
2019-01-21T01:38:14.940Z,6.11
2019-01-21T01:40:44.466Z,6.15
2019-01-21T01:43:14.115Z,6.19
2019-01-21T01:45:44.191Z,6.20
2019-01-21T01:48:13.778Z,6.19
2019-01-21T01:50:43.416Z,6.28
2019-01-21T01:53:14.090Z,6.34
2019-01-21T01:55:43.904Z,6.39
2019-01-21T01:58:13.484Z,6.46
2019-01-21T02:00:43.266Z,6.50
2019-01-21T02:03:12.794Z,6.53
2019-01-21T02:05:42.297Z,6.59
2019-01-21T02:08:11.855Z,6.61
2019-01-21T02:10:41.372Z,6.68
2019-01-21T02:13:10.979Z,6.68
2019-01-21T02:15:40.542Z,6.77
2019-01-21T02:18:10.050Z,6.76
2019-01-21T02:20:40.216Z,6.68
2019-01-21T02:23:16.405Z,6.61
2019-01-21T02:25:51.299Z,6.58
2019-01-21T02:29:11.014Z,6.61
2019-01-21T02:32:32.345Z,6.68
2019-01-21T02:35:31.944Z,6.63
2019-01-21T02:38:30.771Z,6.66
2019-01-21T02:41:14.311Z,6.68
2019-01-21T02:44:30.884Z,6.68
2019-01-21T02:47:24.564Z,6.63
2019-01-21T02:50:36.825Z,6.61
2019-01-21T02:53:30.257Z,6.56
2019-01-21T02:56:27.436Z,6.49
2019-01-21T02:59:33.588Z,6.46
2019-01-21T03:02:57.636Z,6.45
2019-01-21T03:06:17.222Z,6.44
2019-01-21T03:09:42.892Z,6.40
2019-01-21T03:13:08.729Z,6.45
2019-01-21T03:16:40.051Z,6.51
2019-01-21T03:19:38.606Z,6.50
2019-01-21T03:22:51.527Z,6.56
2019-01-21T03:26:16.766Z,6.56
2019-01-21T03:29:23.075Z,6.48
2019-01-21T03:32:39.531Z,6.43
2019-01-21T03:35:52.381Z,6.40
2019-01-21T03:38:49.912Z,6.30
2019-01-21T03:41:32.687Z,6.20
2019-01-21T03:44:32.072Z,6.19
2019-01-21T03:47:40.995Z,6.17
2019-01-21T03:50:53.510Z,6.15
2019-01-21T03:53:53.271Z,6.06
2019-01-21T03:56:44.439Z,6.10
2019-01-21T03:59:50.879Z,6.17
2019-01-21T04:02:56.935Z,6.18
2019-01-21T04:05:44.835Z,6.17
2019-01-21T04:08:44.132Z,6.10
2019-01-21T04:11:42.601Z,6.07
2019-01-21T04:15:23.244Z,6.08
2019-01-21T04:18:31.980Z,6.04
2019-01-21T04:21:34.382Z,5.98
2019-01-21T04:25:03.103Z,5.94
2019-01-21T04:27:54.490Z,5.83
2019-01-21T04:30:56.879Z,5.74
2019-01-21T04:34:01.421Z,5.68
2019-01-21T04:37:26.081Z,5.61
2019-01-21T04:40:26.543Z,5.53
2019-01-21T04:43:25.137Z,5.41
2019-01-21T04:46:50.869Z,5.36
2019-01-21T04:50:05.949Z,5.30
2019-01-21T04:53:10.055Z,5.34
2019-01-21T04:56:32.387Z,5.31
2019-01-21T05:00:01.123Z,5.30
2019-01-21T05:03:05.671Z,5.28
2019-01-21T05:06:03.524Z,5.25
2019-01-21T05:09:27.719Z,5.12
2019-01-21T05:12:43.910Z,5.06
2019-01-21T05:16:03.586Z,5.03
2019-01-21T05:19:14.036Z,4.93
2019-01-21T05:22:02.299Z,4.92
2019-01-21T05:25:11.129Z,4.89
2019-01-21T05:28:10.057Z,4.91
2019-01-21T05:31:08.887Z,4.85
2019-01-21T05:34:14.056Z,4.85
2019-01-21T05:37:08.874Z,4.86
2019-01-21T05:40:15.340Z,4.89
2019-01-21T05:43:09.445Z,4.88
2019-01-21T05:46:05.757Z,4.88
2019-01-21T05:49:30.346Z,4.80
2019-01-21T05:53:04.799Z,4.79
2019-01-21T05:56:30.037Z,4.61
2019-01-21T05:59:51.466Z,4.57
2019-01-21T06:03:07.832Z,4.50
2019-01-21T06:06:11.368Z,4.47
2019-01-21T06:09:08.944Z,4.48
2019-01-21T06:12:18.672Z,4.53
2019-01-21T06:15:32.103Z,4.53
2019-01-21T06:18:26.069Z,4.49
2019-01-21T06:21:33.654Z,4.50
2019-01-21T06:24:56.073Z,4.48
2019-01-21T06:28:01.742Z,4.48
2019-01-21T06:31:11.152Z,4.54
2019-01-21T06:34:32.766Z,4.52
2019-01-21T06:37:43.061Z,4.08
2019-01-21T06:41:01.181Z,3.53
2019-01-21T06:44:01.093Z,3.52
2019-01-21T06:47:08.650Z,3.55
2019-01-21T06:50:01.838Z,3.52
2019-01-21T06:53:01.196Z,3.56
2019-01-21T06:56:10.346Z,3.62
2019-01-21T06:59:17.849Z,3.66
2019-01-21T07:02:11.950Z,3.71
2019-01-21T07:05:18.242Z,3.80
2019-01-21T07:08:36.543Z,3.85
2019-01-21T07:12:01.754Z,3.86
2019-01-21T07:15:18.566Z,3.95
2019-01-21T07:18:26.058Z,4.12
2019-01-21T07:21:31.349Z,4.28
2019-01-21T07:24:40.625Z,4.38
2019-01-21T07:27:47.386Z,4.39
2019-01-21T07:30:47.494Z,4.69
2019-01-21T07:33:46.020Z,4.91
2019-01-21T07:36:59.095Z,4.92
2019-01-21T07:40:21.250Z,4.88
2019-01-21T07:43:26.275Z,4.88
2019-01-21T07:46:17.100Z,4.87
2019-01-21T07:49:24.202Z,5.05
2019-01-21T07:52:29.085Z,5.06
2019-01-21T07:55:38.779Z,5.19
2019-01-21T07:58:55.180Z,5.24
2019-01-21T08:01:45.473Z,5.26
2019-01-21T08:04:35.276Z,5.37
2019-01-21T08:07:30.523Z,5.57
2019-01-21T08:10:35.633Z,5.74
2019-01-21T08:13:25.329Z,5.83
2019-01-21T08:16:31.646Z,5.98
2019-01-21T08:19:39.305Z,6.00
2019-01-21T08:22:59.053Z,6.22
2019-01-21T08:26:21.580Z,6.26
2019-01-21T08:29:08.712Z,6.03
2019-01-21T08:32:10.009Z,6.04
2019-01-21T08:35:07.167Z,6.09
2019-01-21T08:38:31.268Z,6.32
2019-01-21T08:41:38.926Z,6.59
2019-01-21T08:45:04.547Z,6.70
2019-01-21T08:48:26.894Z,6.76
2019-01-21T08:51:37.731Z,6.69
2019-01-21T08:54:47.850Z,6.88
2019-01-21T08:57:49.164Z,6.98
2019-01-21T09:00:42.262Z,7.29
2019-01-21T09:03:49.027Z,7.62
2019-01-21T09:07:00.553Z,7.82
2019-01-21T09:10:16.042Z,7.74
2019-01-21T09:13:19.888Z,7.80
2019-01-21T09:16:08.091Z,7.78
2019-01-21T09:18:53.733Z,8.12
2019-01-21T09:22:01.312Z,8.17
2019-01-21T09:25:09.623Z,8.13
2019-01-21T09:28:09.699Z,8.04
2019-01-21T09:31:44.189Z,7.82
2019-01-21T09:34:41.141Z,8.01
2019-01-21T09:37:46.256Z,8.21
2019-01-21T09:41:04.213Z,8.33
2019-01-21T09:44:13.602Z,8.34
2019-01-21T09:46:53.496Z,8.38
2019-01-21T09:49:21.156Z,8.43
2019-01-21T09:52:11.891Z,8.59
2019-01-21T09:54:42.444Z,8.62
2019-01-21T09:57:27.994Z,8.45
2019-01-21T10:00:01.591Z,8.54
2019-01-21T10:02:42.461Z,8.67
2019-01-21T10:05:14.193Z,8.81
2019-01-21T10:08:06.265Z,8.39
2019-01-21T10:11:25.814Z,7.96
2019-01-21T10:14:23.134Z,8.21
2019-01-21T10:17:27.886Z,8.43
2019-01-21T10:20:46.978Z,8.51
2019-01-21T10:23:54.642Z,8.84
2019-01-21T10:26:59.658Z,8.67
2019-01-21T10:29:51.336Z,8.19
2019-01-21T10:33:13.563Z,7.74
2019-01-21T10:36:18.538Z,7.66
2019-01-21T10:39:26.409Z,7.63
2019-01-21T10:42:55.174Z,7.51
2019-01-21T10:45:34.799Z,7.84
2019-01-21T10:48:14.723Z,8.36
2019-01-21T10:51:06.922Z,8.76
2019-01-21T10:53:59.339Z,8.63
2019-01-21T10:56:44.651Z,8.24
2019-01-21T10:59:36.292Z,7.79
2019-01-21T11:02:47.673Z,7.52
2019-01-21T11:05:39.142Z,7.41
2019-01-21T11:08:37.732Z,7.37
2019-01-21T11:12:10.769Z,7.34
2019-01-21T11:15:13.112Z,7.19
2019-01-21T11:18:23.291Z,7.19
2019-01-21T11:21:23.032Z,7.34
2019-01-21T11:24:16.969Z,7.21
2019-01-21T11:27:20.102Z,7.18
2019-01-21T11:30:19.236Z,7.09
2019-01-21T11:33:19.399Z,7.10
2019-01-21T11:36:15.284Z,7.25
2019-01-21T11:39:08.659Z,7.25
2019-01-21T11:41:53.706Z,6.93
2019-01-21T11:45:23.325Z,6.76
2019-01-21T11:48:33.257Z,6.84
2019-01-21T11:51:29.794Z,6.91
2019-01-21T11:54:08.327Z,6.98
2019-01-21T11:57:11.636Z,6.85
2019-01-21T11:59:54.274Z,6.70
2019-01-21T12:03:03.457Z,6.63
2019-01-21T12:06:07.193Z,6.80
2019-01-21T12:09:07.536Z,6.98
2019-01-21T12:11:54.631Z,7.00
2019-01-21T12:14:54.683Z,6.97
2019-01-21T12:18:10.366Z,6.90
2019-01-21T12:21:08.016Z,6.68
2019-01-21T12:24:18.363Z,6.45
2019-01-21T12:27:25.875Z,6.37
2019-01-21T12:30:35.233Z,6.42
2019-01-21T12:33:51.708Z,6.27
2019-01-21T12:36:36.610Z,6.43
2019-01-21T12:39:45.577Z,6.10
2019-01-21T12:43:08.851Z,5.93
2019-01-21T12:46:09.589Z,6.02
2019-01-21T12:49:25.683Z,5.82
2019-01-21T12:52:23.847Z,5.88
2019-01-21T12:55:21.295Z,5.91
2019-01-21T12:58:28.225Z,5.81
2019-01-21T13:01:37.504Z,5.86
2019-01-21T13:04:48.440Z,5.89
2019-01-21T13:07:39.138Z,5.78
2019-01-21T13:10:55.555Z,5.48
2019-01-21T13:14:17.736Z,5.33
2019-01-21T13:16:53.233Z,5.43
2019-01-21T13:20:09.683Z,5.34
2019-01-21T13:23:30.111Z,5.41
2019-01-21T13:26:28.653Z,5.42
2019-01-21T13:29:25.282Z,5.40
2019-01-21T13:32:19.863Z,5.32
2019-01-21T13:35:29.358Z,5.11
2019-01-21T13:38:29.913Z,5.02
2019-01-21T13:41:37.209Z,5.06
2019-01-21T13:44:44.583Z,4.85
2019-01-21T13:48:03.732Z,4.84
2019-01-21T13:51:09.806Z,4.88
2019-01-21T13:54:13.716Z,4.67
2019-01-21T13:57:34.612Z,4.71
2019-01-21T14:00:41.922Z,4.72
2019-01-21T14:03:23.281Z,4.63
2019-01-21T14:06:52.395Z,4.60
2019-01-21T14:09:53.519Z,4.68
2019-01-21T14:13:06.729Z,4.52
2019-01-21T14:15:48.359Z,4.53
2019-01-21T14:18:46.085Z,4.48
2019-01-21T14:22:11.324Z,4.53
2019-01-21T14:25:25.326Z,4.63
2019-01-21T14:28:32.236Z,4.86
2019-01-21T14:31:32.284Z,4.94
2019-01-21T14:34:44.435Z,4.66
2019-01-21T14:37:52.040Z,4.43
2019-01-21T14:41:07.686Z,4.29
2019-01-21T14:44:27.085Z,4.21
2019-01-21T14:47:19.321Z,4.15
2019-01-21T14:49:58.911Z,4.10
2019-01-21T14:53:07.632Z,4.11
2019-01-21T14:56:01.961Z,3.94
2019-01-21T14:58:56.377Z,3.77
2019-01-21T15:02:02.494Z,3.70
2019-01-21T15:04:52.624Z,3.69
2019-01-21T15:08:03.939Z,3.61
2019-01-21T15:11:24.593Z,3.56
2019-01-21T15:14:24.617Z,3.55
2019-01-21T15:17:50.209Z,3.48
2019-01-21T15:20:32.539Z,3.41
2019-01-21T15:23:34.125Z,3.40
2019-01-21T15:26:44.291Z,3.31
2019-01-21T15:30:08.240Z,3.27
2019-01-21T15:33:28.948Z,3.19
2019-01-21T15:36:30.606Z,3.15
2019-01-21T15:39:37.616Z,3.10
2019-01-21T15:42:35.435Z,3.03
2019-01-21T15:45:56.591Z,3.02
2019-01-21T15:49:05.597Z,3.05
2019-01-21T15:52:25.001Z,2.91
2019-01-21T15:55:40.672Z,2.91
2019-01-21T15:58:57.856Z,2.89
2019-01-21T16:02:01.523Z,2.88
2019-01-21T16:05:04.533Z,2.81
2019-01-21T16:08:18.653Z,2.82
2019-01-21T16:11:11.319Z,2.81
2019-01-21T16:13:45.925Z,2.89
2019-01-21T16:16:43.227Z,2.81
2019-01-21T16:19:42.284Z,2.81
2019-01-21T16:22:47.584Z,2.73
2019-01-21T16:25:37.781Z,2.68
2019-01-21T16:28:23.436Z,2.73
2019-01-21T16:31:14.540Z,2.80
2019-01-21T16:34:30.676Z,2.76
2019-01-21T16:37:17.450Z,2.77
2019-01-21T16:40:40.552Z,2.80
2019-01-21T16:43:10.114Z,2.86
2019-01-21T16:45:41.066Z,2.93
2019-01-21T16:48:10.749Z,3.03
2019-01-21T16:50:40.318Z,3.14
2019-01-21T16:53:11.083Z,3.24
2019-01-21T16:55:40.591Z,3.25
2019-01-21T16:58:10.099Z,3.35
2019-01-21T17:00:39.664Z,3.47
2019-01-21T17:03:09.215Z,3.45
2019-01-21T17:05:38.802Z,3.46
2019-01-21T17:08:08.361Z,3.47
2019-01-21T17:10:39.249Z,3.56
2019-01-21T17:13:08.908Z,3.58
2019-01-21T17:15:38.423Z,3.50
2019-01-21T17:18:09.360Z,3.62
2019-01-21T17:20:38.870Z,3.60
2019-01-21T17:23:08.380Z,3.56
2019-01-21T17:25:39.160Z,3.55
2019-01-21T17:28:08.671Z,3.62
2019-01-21T17:30:38.180Z,3.56
2019-01-21T17:33:07.735Z,3.60
2019-01-21T17:35:37.401Z,3.52
2019-01-21T17:38:06.948Z,3.54
2019-01-21T17:40:37.753Z,3.62
2019-01-21T17:43:07.331Z,3.66
2019-01-21T17:45:36.823Z,3.70
2019-01-21T17:48:06.482Z,3.55
2019-01-21T17:50:37.313Z,3.67
2019-01-21T17:53:06.863Z,3.67
2019-01-21T17:55:36.464Z,3.54
2019-01-21T17:58:06.047Z,3.42
2019-01-21T18:00:35.545Z,3.48
2019-01-21T18:03:05.210Z,3.51
2019-01-21T18:05:34.876Z,3.56
2019-01-21T18:08:04.497Z,3.47
2019-01-21T18:10:34.047Z,3.45
2019-01-21T18:13:03.571Z,3.50
2019-01-21T18:15:33.086Z,3.61
2019-01-21T18:18:02.650Z,3.53
2019-01-21T18:20:32.161Z,3.57
2019-01-21T18:23:01.872Z,3.50
2019-01-21T18:25:31.433Z,3.49
2019-01-21T18:28:00.939Z,3.48
2019-01-21T18:30:30.960Z,3.58
2019-01-21T18:33:00.528Z,3.55
2019-01-21T18:35:32.438Z,3.60
2019-01-21T18:38:03.313Z,3.75
2019-01-21T18:40:33.337Z,3.64
2019-01-21T18:43:02.850Z,3.79
2019-01-21T18:45:32.631Z,3.80
2019-01-21T18:48:02.139Z,3.91
2019-01-21T18:50:31.825Z,4.03
2019-01-21T18:53:01.439Z,4.02
2019-01-21T18:55:30.995Z,3.98
2019-01-21T18:58:01.836Z,3.99
2019-01-21T19:00:31.352Z,3.90
2019-01-21T19:03:00.968Z,3.98
2019-01-21T19:05:30.558Z,3.97
2019-01-21T19:08:00.065Z,3.97
2019-01-21T19:10:29.580Z,3.88
2019-01-21T19:12:59.164Z,4.00
2019-01-21T19:15:34.886Z,4.04
2019-01-21T19:18:05.739Z,4.00
2019-01-21T19:20:35.284Z,3.99
2019-01-21T19:23:04.852Z,3.95
2019-01-21T19:25:35.711Z,4.01
2019-01-21T19:28:06.645Z,3.99
2019-01-21T19:30:36.174Z,3.97
2019-01-21T19:33:05.841Z,3.93
2019-01-21T19:35:39.622Z,3.89
2019-01-21T19:38:09.157Z,3.84
2019-01-21T19:40:39.978Z,3.70
2019-01-21T19:43:09.537Z,3.80
2019-01-21T19:45:39.060Z,3.73
2019-01-21T19:48:09.890Z,3.75
2019-01-21T19:50:39.387Z,3.77
2019-01-21T19:53:08.933Z,3.76
2019-01-21T19:55:40.957Z,3.76
2019-01-21T19:58:11.422Z,3.83
2019-01-21T20:00:40.952Z,3.79
2019-01-21T20:03:11.855Z,3.80
2019-01-21T20:05:41.448Z,3.70
2019-01-21T20:08:10.993Z,3.64
2019-01-21T20:10:40.521Z,3.60
2019-01-21T20:13:10.149Z,3.66
2019-01-21T20:15:39.713Z,3.70
2019-01-21T20:18:09.314Z,3.71
2019-01-21T20:20:40.986Z,3.73
2019-01-21T20:23:10.587Z,3.77
2019-01-21T20:25:40.112Z,3.68
2019-01-21T20:28:11.217Z,3.55
2019-01-21T20:30:40.781Z,3.61
2019-01-21T20:33:10.321Z,3.50
2019-01-21T20:35:39.908Z,3.40
2019-01-21T20:38:09.429Z,3.28
2019-01-21T20:40:38.933Z,3.24
2019-01-21T20:43:09.691Z,3.26
2019-01-21T20:45:39.258Z,3.18
2019-01-21T20:48:09.994Z,3.14
2019-01-21T20:50:39.587Z,3.28
2019-01-21T20:53:09.102Z,3.05
2019-01-21T20:55:38.632Z,3.09
2019-01-21T20:58:08.297Z,3.29
2019-01-21T21:00:37.907Z,3.21
2019-01-21T21:03:07.410Z,3.11
2019-01-21T21:05:36.968Z,2.95
2019-01-21T21:08:06.541Z,2.92
2019-01-21T21:10:36.120Z,2.94
2019-01-21T21:13:05.724Z,2.90
2019-01-21T21:15:36.558Z,2.87
2019-01-21T21:18:06.185Z,2.87
2019-01-21T21:20:35.720Z,2.93
2019-01-21T21:23:05.213Z,2.88
2019-01-21T21:25:34.720Z,2.98
2019-01-21T21:28:05.233Z,2.93
2019-01-21T21:30:34.979Z,3.02
2019-01-21T21:33:04.967Z,2.98
2019-01-21T21:35:34.460Z,2.94
2019-01-21T21:38:05.299Z,2.81
2019-01-21T21:40:34.802Z,2.96
2019-01-21T21:43:04.454Z,2.93
2019-01-21T21:45:34.047Z,3.02
2019-01-21T21:48:03.546Z,3.06
2019-01-21T21:50:33.885Z,2.87
2019-01-21T21:53:03.393Z,2.81
2019-01-21T21:55:32.908Z,2.79
2019-01-21T21:58:02.570Z,2.78
2019-01-21T22:00:32.177Z,2.82
2019-01-21T22:03:01.768Z,2.85
2019-01-21T22:05:31.395Z,2.89
2019-01-21T22:08:00.944Z,2.74
2019-01-21T22:10:31.385Z,2.69
2019-01-21T22:13:00.965Z,2.80
2019-01-21T22:15:30.587Z,2.78
2019-01-21T22:18:00.159Z,2.77
2019-01-21T22:20:29.656Z,2.77
2019-01-21T22:22:59.203Z,2.77
2019-01-21T22:25:28.720Z,2.70
2019-01-21T22:27:58.258Z,2.68
2019-01-21T22:30:28.956Z,2.70
2019-01-21T22:32:59.960Z,2.71
2019-01-21T22:35:29.847Z,2.63
2019-01-21T22:37:59.358Z,2.49
2019-01-21T22:40:29.172Z,2.68
2019-01-21T22:42:58.676Z,2.62
2019-01-21T22:45:28.196Z,2.55
2019-01-21T22:47:58.175Z,2.58
2019-01-21T22:50:27.856Z,2.53
2019-01-21T22:52:58.796Z,2.61
2019-01-21T22:55:28.303Z,2.60
2019-01-21T22:57:57.807Z,2.66
2019-01-21T23:00:49.962Z,2.60
2019-01-21T23:03:19.531Z,2.54
2019-01-21T23:05:49.148Z,2.61
2019-01-21T23:08:18.710Z,2.74
2019-01-21T23:10:48.238Z,2.61
2019-01-21T23:13:17.752Z,2.52
2019-01-21T23:15:47.308Z,2.63
2019-01-21T23:18:16.832Z,2.60
2019-01-21T23:20:46.321Z,2.55
2019-01-21T23:23:15.875Z,2.61
2019-01-21T23:25:45.408Z,2.65
2019-01-21T23:28:14.970Z,2.52
2019-01-21T23:30:44.464Z,2.50
2019-01-21T23:33:13.981Z,2.47
2019-01-21T23:35:43.583Z,2.45
2019-01-21T23:38:13.107Z,2.41
2019-01-21T23:40:42.611Z,2.48
2019-01-21T23:43:12.177Z,2.49
2019-01-21T23:45:41.685Z,2.56
2019-01-21T23:48:11.304Z,2.41
2019-01-21T23:50:41.018Z,2.37
2019-01-21T23:53:10.605Z,2.29
2019-01-21T23:55:40.124Z,2.43
2019-01-21T23:58:09.676Z,2.42
